createdAt,value
2019-03-24T00:00:57.534Z,107.35
2019-03-24T00:03:26.024Z,108.72
2019-03-24T00:05:54.547Z,115.30
2019-03-24T00:08:24.102Z,112.60
2019-03-24T00:10:52.608Z,116.00
2019-03-24T00:13:21.105Z,116.55
2019-03-24T00:15:49.623Z,121.40
2019-03-24T00:18:18.108Z,116.88
2019-03-24T00:20:46.863Z,121.80
2019-03-24T00:23:15.346Z,127.25
2019-03-24T00:25:43.835Z,125.50
2019-03-24T00:28:12.353Z,131.85
2019-03-24T00:30:40.841Z,126.38
2019-03-24T00:33:09.344Z,121.17
2019-03-24T00:35:39.158Z,125.05
2019-03-24T00:38:07.672Z,120.90
2019-03-24T00:40:36.180Z,118.40
2019-03-24T00:43:04.922Z,121.28
2019-03-24T00:45:37.010Z,123.15
2019-03-24T00:48:03.679Z,121.28
2019-03-24T00:50:32.165Z,117.55
2019-03-24T00:53:00.713Z,115.05
2019-03-24T00:55:29.200Z,118.15
2019-03-24T00:57:57.851Z,116.20
2019-03-24T01:00:43.928Z,110.92
2019-03-24T01:03:12.485Z,108.10
2019-03-24T01:05:41.247Z,116.47
2019-03-24T01:08:09.964Z,113.85
2019-03-24T01:10:38.596Z,119.20
2019-03-24T01:13:07.147Z,108.47
2019-03-24T01:15:35.729Z,112.30
2019-03-24T01:18:04.456Z,106.63
2019-03-24T01:20:32.973Z,102.95
2019-03-24T01:23:01.465Z,113.57
2019-03-24T01:25:29.965Z,117.42
2019-03-24T01:27:58.444Z,129.40
2019-03-24T01:30:27.035Z,144.97
2019-03-24T01:32:55.549Z,137.97
2019-03-24T01:35:24.032Z,124.62
2019-03-24T01:37:52.524Z,143.47
2019-03-24T01:40:21.006Z,124.72
2019-03-24T01:42:49.498Z,123.53
2019-03-24T01:45:18.012Z,122.58
2019-03-24T01:47:46.491Z,129.38
2019-03-24T01:50:15.140Z,135.88
2019-03-24T01:52:43.724Z,127.30
2019-03-24T01:55:12.410Z,119.10
2019-03-24T01:57:40.889Z,114.92
2019-03-24T02:00:10.040Z,121.50
2019-03-24T02:02:38.532Z,143.00
2019-03-24T02:05:08.025Z,124.47
2019-03-24T02:07:36.625Z,126.12
2019-03-24T02:10:08.147Z,147.35
2019-03-24T02:12:36.743Z,134.10
2019-03-24T02:15:07.334Z,127.50
2019-03-24T02:17:35.885Z,116.03
2019-03-24T02:20:06.134Z,113.28
2019-03-24T02:22:34.616Z,138.97
2019-03-24T02:25:03.200Z,123.45
2019-03-24T02:27:31.696Z,124.02
2019-03-24T02:30:00.425Z,123.85
2019-03-24T02:32:29.246Z,133.63
2019-03-24T02:34:57.730Z,122.05
2019-03-24T02:37:26.229Z,118.05
2019-03-24T02:39:54.811Z,114.30
2019-03-24T02:42:23.293Z,115.62
2019-03-24T02:44:51.773Z,110.68
2019-03-24T02:47:20.272Z,105.92
2019-03-24T02:49:48.745Z,105.43
2019-03-24T02:52:17.265Z,112.97
2019-03-24T02:54:45.758Z,105.03
2019-03-24T02:57:14.262Z,109.92
2019-03-24T02:59:42.788Z,110.08
2019-03-24T03:02:11.341Z,103.07
2019-03-24T03:04:39.822Z,105.40
2019-03-24T03:07:08.322Z,108.03
2019-03-24T03:09:36.822Z,110.28
2019-03-24T03:12:05.456Z,106.75
2019-03-24T03:14:33.976Z,104.07
2019-03-24T03:17:02.456Z,100.25
2019-03-24T03:19:30.982Z,91.17
2019-03-24T03:21:59.672Z,102.25
2019-03-24T03:24:28.374Z,99.52
2019-03-24T03:26:56.851Z,106.50
2019-03-24T03:29:25.372Z,108.63
2019-03-24T03:31:54.085Z,103.38
2019-03-24T03:34:22.562Z,98.40
2019-03-24T03:36:51.158Z,97.08
2019-03-24T03:39:20.745Z,95.97
2019-03-24T03:41:49.245Z,102.92
2019-03-24T03:44:17.769Z,97.22
2019-03-24T03:46:52.674Z,96.25
2019-03-24T03:49:16.456Z,93.05
2019-03-24T03:51:44.949Z,93.40
2019-03-24T03:54:13.421Z,99.55
2019-03-24T03:56:41.918Z,106.03
2019-03-24T03:59:10.432Z,100.53
2019-03-24T04:01:38.946Z,102.60
2019-03-24T04:04:07.606Z,106.32
2019-03-24T04:06:36.123Z,105.20
2019-03-24T04:09:06.043Z,108.35
2019-03-24T04:11:34.535Z,103.80
2019-03-24T04:14:03.029Z,103.25
2019-03-24T04:16:31.531Z,117.00
2019-03-24T04:19:00.013Z,112.45
2019-03-24T04:21:28.524Z,102.30
2019-03-24T04:23:58.581Z,112.15
2019-03-24T04:26:27.083Z,110.60
2019-03-24T04:28:55.591Z,106.10
2019-03-24T04:31:24.156Z,106.97
2019-03-24T04:33:52.598Z,117.80
2019-03-24T04:36:21.083Z,128.42
2019-03-24T04:38:49.572Z,128.27
2019-03-24T04:41:18.197Z,131.93
2019-03-24T04:43:46.701Z,121.10
2019-03-24T04:46:15.181Z,110.72
2019-03-24T04:48:43.730Z,110.30
2019-03-24T04:51:12.212Z,108.67
2019-03-24T04:53:40.696Z,106.85
2019-03-24T04:56:09.294Z,108.90
2019-03-24T04:58:37.765Z,102.45
2019-03-24T05:01:06.333Z,117.17
2019-03-24T05:03:34.831Z,116.37
2019-03-24T05:06:03.482Z,114.82
2019-03-24T05:08:32.248Z,120.45
2019-03-24T05:11:00.744Z,119.97
2019-03-24T05:13:29.245Z,114.45
2019-03-24T05:15:57.726Z,110.22
2019-03-24T05:18:26.321Z,101.42
2019-03-24T05:20:54.835Z,102.35
2019-03-24T05:23:23.324Z,133.15
2019-03-24T05:25:52.113Z,201.85
2019-03-24T05:28:20.608Z,136.30
2019-03-24T05:30:49.122Z,130.37
2019-03-24T05:33:17.602Z,118.17
2019-03-24T05:35:46.115Z,122.70
2019-03-24T05:38:14.596Z,117.95
2019-03-24T05:40:43.113Z,113.22
2019-03-24T05:43:11.601Z,107.30
2019-03-24T05:45:40.098Z,103.12
2019-03-24T05:48:08.611Z,96.75
2019-03-24T05:50:37.118Z,108.87
2019-03-24T05:53:05.700Z,104.15
2019-03-24T05:55:34.183Z,92.53
2019-03-24T05:58:02.681Z,99.35
2019-03-24T06:00:31.168Z,102.42
2019-03-24T06:02:59.665Z,96.53
2019-03-24T06:05:28.171Z,84.97
2019-03-24T06:07:56.660Z,88.87
2019-03-24T06:10:25.169Z,93.70
2019-03-24T06:12:54.603Z,91.63
2019-03-24T06:15:23.130Z,97.02
2019-03-24T06:17:51.604Z,96.70
2019-03-24T06:20:20.166Z,106.20
2019-03-24T06:22:48.641Z,112.60
2019-03-24T06:25:17.238Z,96.08
2019-03-24T06:27:45.720Z,99.92
2019-03-24T06:30:14.702Z,78.25
2019-03-24T06:32:43.276Z,80.40
2019-03-24T06:35:11.819Z,90.05
2019-03-24T06:37:40.323Z,109.65
2019-03-24T06:40:09.344Z,88.95
2019-03-24T06:42:37.924Z,77.90
2019-03-24T06:45:08.662Z,81.02
2019-03-24T06:47:37.170Z,67.45
2019-03-24T06:50:07.499Z,59.88
2019-03-24T06:52:36.148Z,65.87
2019-03-24T06:55:04.965Z,65.87
2019-03-24T06:57:33.525Z,51.83
2019-03-24T07:00:02.000Z,63.13
2019-03-24T07:02:30.500Z,57.50
2019-03-24T07:04:59.348Z,60.65
2019-03-24T07:07:27.852Z,61.53
2019-03-24T07:09:56.343Z,65.70
2019-03-24T07:12:24.821Z,66.35
2019-03-24T07:14:53.334Z,74.92
2019-03-24T07:17:22.080Z,60.90
2019-03-24T07:19:50.599Z,69.50
2019-03-24T07:22:19.466Z,73.65
2019-03-24T07:24:47.952Z,51.80
2019-03-24T07:27:16.486Z,60.98
2019-03-24T07:29:44.959Z,67.62
2019-03-24T07:32:13.434Z,63.87
2019-03-24T07:34:41.951Z,60.92
2019-03-24T07:37:10.468Z,68.37
2019-03-24T07:39:38.957Z,71.47
2019-03-24T07:42:07.472Z,74.87
2019-03-24T07:44:35.958Z,63.17
2019-03-24T07:47:07.503Z,67.90
2019-03-24T07:49:36.087Z,64.80
2019-03-24T07:52:04.638Z,68.90
2019-03-24T07:54:33.148Z,85.53
2019-03-24T07:57:01.632Z,62.95
2019-03-24T07:59:30.119Z,62.90
2019-03-24T08:01:59.683Z,70.00
2019-03-24T08:04:28.160Z,64.67
2019-03-24T08:06:56.716Z,58.48
2019-03-24T08:09:25.231Z,63.38
2019-03-24T08:11:53.705Z,58.08
2019-03-24T08:14:22.223Z,72.60
2019-03-24T08:16:50.706Z,63.00
2019-03-24T08:19:19.198Z,60.15
2019-03-24T08:21:47.684Z,70.37
2019-03-24T08:24:16.202Z,58.90
2019-03-24T08:26:44.790Z,53.38
2019-03-24T08:29:13.297Z,60.17
2019-03-24T08:31:41.810Z,58.08
2019-03-24T08:34:10.288Z,47.20
2019-03-24T08:36:38.853Z,52.85
2019-03-24T08:39:07.438Z,49.38
2019-03-24T08:41:36.020Z,53.48
2019-03-24T08:44:04.635Z,44.38
2019-03-24T08:46:33.154Z,52.10
2019-03-24T08:49:01.650Z,51.08
2019-03-24T08:51:30.124Z,49.33
2019-03-24T08:53:59.628Z,53.40
2019-03-24T08:56:28.130Z,50.88
2019-03-24T08:58:56.625Z,51.33
2019-03-24T09:01:25.224Z,48.75
2019-03-24T09:03:53.715Z,47.30
2019-03-24T09:06:22.206Z,47.48
2019-03-24T09:08:50.718Z,42.30
2019-03-24T09:11:19.213Z,41.50
2019-03-24T09:13:47.726Z,45.92
2019-03-24T09:16:16.253Z,44.50
2019-03-24T09:18:52.633Z,47.90
2019-03-24T09:21:14.960Z,56.20
2019-03-24T09:23:43.444Z,43.40
2019-03-24T09:26:11.956Z,35.63
2019-03-24T09:28:40.439Z,68.20
2019-03-24T09:31:08.974Z,171.50
2019-03-24T09:33:37.491Z,99.92
2019-03-24T09:36:06.045Z,98.85
2019-03-24T09:38:34.623Z,29.07
2019-03-24T09:41:03.106Z,82.30
2019-03-24T09:43:31.629Z,145.75
2019-03-24T09:46:00.148Z,31.82
2019-03-24T09:48:28.673Z,26.93
2019-03-24T09:50:57.227Z,32.63
2019-03-24T09:53:25.709Z,33.15
2019-03-24T09:55:54.233Z,35.17
2019-03-24T09:58:22.718Z,29.77
2019-03-24T10:00:51.218Z,40.40
2019-03-24T10:03:19.702Z,28.30
2019-03-24T10:05:48.261Z,28.32
2019-03-24T10:08:16.757Z,30.02
2019-03-24T10:10:45.224Z,23.35
2019-03-24T10:13:13.713Z,28.57
2019-03-24T10:15:42.235Z,27.22
2019-03-24T10:18:10.798Z,23.90
2019-03-24T10:20:39.287Z,26.93
2019-03-24T10:23:07.785Z,27.07
2019-03-24T10:25:36.270Z,25.55
2019-03-24T10:28:04.787Z,23.52
2019-03-24T10:30:33.269Z,32.38
2019-03-24T10:33:01.779Z,29.02
2019-03-24T10:35:30.269Z,27.05
2019-03-24T10:37:58.793Z,31.45
2019-03-24T10:40:28.824Z,27.22
2019-03-24T10:42:57.695Z,26.55
2019-03-24T10:45:26.186Z,24.95
2019-03-24T10:47:56.309Z,27.00
2019-03-24T10:50:24.825Z,24.12
2019-03-24T10:52:53.321Z,22.58
2019-03-24T10:55:21.805Z,32.67
2019-03-24T10:57:51.332Z,21.50
2019-03-24T11:00:22.907Z,23.45
2019-03-24T11:02:51.404Z,21.10
2019-03-24T11:05:19.889Z,25.12
2019-03-24T11:07:48.413Z,23.77
2019-03-24T11:10:16.964Z,22.32
2019-03-24T11:12:45.478Z,45.95
2019-03-24T11:15:14.064Z,26.27
2019-03-24T11:17:42.575Z,47.65
2019-03-24T11:20:11.339Z,22.30
2019-03-24T11:22:39.818Z,43.28
2019-03-24T11:25:09.469Z,34.50
2019-03-24T11:27:38.248Z,85.30
2019-03-24T11:30:14.267Z,52.30
2019-03-24T11:32:42.993Z,32.93
2019-03-24T11:35:12.646Z,30.95
2019-03-24T11:37:41.293Z,36.73
2019-03-24T11:40:11.509Z,129.15
2019-03-24T11:42:40.100Z,77.08
2019-03-24T11:45:10.237Z,30.20
2019-03-24T11:47:38.736Z,25.37
2019-03-24T11:50:08.461Z,62.23
2019-03-24T11:52:37.300Z,54.03
2019-03-24T11:55:10.407Z,37.67
2019-03-24T11:57:40.597Z,38.50
2019-03-24T12:00:12.158Z,24.37
2019-03-24T12:02:40.877Z,29.65
2019-03-24T12:05:09.929Z,34.08
2019-03-24T12:07:38.410Z,23.35
2019-03-24T12:10:09.944Z,35.85
2019-03-24T12:12:38.461Z,29.32
2019-03-24T12:15:07.979Z,24.57
2019-03-24T12:17:36.573Z,23.30
2019-03-24T12:20:08.277Z,23.07
2019-03-24T12:22:36.902Z,19.12
2019-03-24T12:25:06.135Z,22.50
2019-03-24T12:27:35.293Z,22.87
2019-03-24T12:30:05.542Z,22.48
2019-03-24T12:32:34.041Z,23.65
2019-03-24T12:35:02.556Z,21.00
2019-03-24T12:37:31.070Z,24.30
2019-03-24T12:39:59.564Z,22.87
2019-03-24T12:42:28.149Z,19.92
2019-03-24T12:44:56.651Z,20.95
2019-03-24T12:47:25.128Z,17.82
2019-03-24T12:49:53.683Z,22.45
2019-03-24T12:52:22.144Z,23.67
2019-03-24T12:54:50.628Z,20.77
2019-03-24T12:57:19.124Z,26.77
2019-03-24T12:59:47.666Z,23.67
2019-03-24T13:02:16.183Z,22.80
2019-03-24T13:04:44.677Z,26.87
2019-03-24T13:07:13.178Z,25.68
2019-03-24T13:09:41.720Z,22.52
2019-03-24T13:12:10.243Z,43.45
2019-03-24T13:14:38.723Z,33.33
2019-03-24T13:17:07.220Z,43.40
2019-03-24T13:19:36.266Z,48.98
2019-03-24T13:22:05.040Z,49.83
2019-03-24T13:24:33.552Z,50.50
2019-03-24T13:27:02.119Z,39.92
2019-03-24T13:29:30.604Z,56.40
2019-03-24T13:32:00.743Z,49.03
2019-03-24T13:34:29.226Z,48.50
2019-03-24T13:36:57.711Z,52.23
2019-03-24T13:39:26.233Z,72.87
2019-03-24T13:41:54.803Z,49.95
2019-03-24T13:44:23.385Z,38.65
2019-03-24T13:46:51.916Z,35.40
2019-03-24T13:49:20.405Z,79.15
2019-03-24T13:51:48.895Z,42.13
2019-03-24T13:54:17.393Z,61.53
2019-03-24T13:56:45.897Z,111.05
2019-03-24T13:59:14.445Z,73.57
2019-03-24T14:01:43.036Z,49.08
2019-03-24T14:04:11.522Z,103.72
2019-03-24T14:06:40.184Z,61.33
2019-03-24T14:09:10.046Z,53.38
2019-03-24T14:11:40.646Z,68.62
2019-03-24T14:14:09.146Z,163.60
2019-03-24T14:16:37.667Z,101.15
2019-03-24T14:19:06.225Z,105.97
2019-03-24T14:21:34.755Z,204.97
2019-03-24T14:24:03.149Z,74.70
2019-03-24T14:26:31.655Z,110.55
2019-03-24T14:29:00.160Z,135.03
2019-03-24T14:31:28.669Z,88.17
2019-03-24T14:33:57.155Z,85.07
2019-03-24T14:36:25.471Z,97.45
2019-03-24T14:38:54.057Z,53.13
2019-03-24T14:41:22.542Z,45.70
2019-03-24T14:43:51.043Z,101.00
2019-03-24T14:46:19.581Z,59.15
2019-03-24T14:48:48.097Z,70.78
2019-03-24T14:51:16.748Z,47.45
2019-03-24T14:53:45.265Z,54.48
2019-03-24T14:56:13.749Z,52.67
2019-03-24T14:58:42.259Z,44.93
2019-03-24T15:01:10.741Z,42.80
2019-03-24T15:03:39.259Z,47.88
2019-03-24T15:06:07.814Z,51.05
2019-03-24T15:08:36.300Z,70.40
2019-03-24T15:11:04.904Z,84.03
2019-03-24T15:13:33.388Z,44.48
2019-03-24T15:16:01.890Z,49.18
2019-03-24T15:18:30.413Z,39.70
2019-03-24T15:21:05.608Z,48.63
2019-03-24T15:23:30.754Z,49.30
2019-03-24T15:25:59.256Z,70.45
2019-03-24T15:28:27.750Z,63.85
2019-03-24T15:30:56.266Z,77.58
2019-03-24T15:33:24.752Z,53.68
2019-03-24T15:35:53.234Z,71.77
2019-03-24T15:38:21.731Z,86.85
2019-03-24T15:40:50.230Z,57.95
2019-03-24T15:43:18.822Z,75.32
2019-03-24T15:45:47.309Z,55.10
2019-03-24T15:48:15.823Z,71.42
2019-03-24T15:50:44.348Z,90.45
2019-03-24T15:53:12.820Z,77.78
2019-03-24T15:55:41.341Z,106.47
2019-03-24T15:58:09.936Z,85.42
2019-03-24T16:00:47.706Z,99.58
2019-03-24T16:03:16.553Z,94.20
2019-03-24T16:05:45.168Z,111.25
2019-03-24T16:08:13.851Z,78.78
2019-03-24T16:10:42.406Z,68.22
2019-03-24T16:13:10.981Z,111.72
2019-03-24T16:15:39.470Z,127.60
2019-03-24T16:18:08.025Z,74.82
2019-03-24T16:20:36.541Z,113.95
2019-03-24T16:23:05.112Z,133.95
2019-03-24T16:25:33.621Z,128.72
2019-03-24T16:28:02.184Z,126.02
2019-03-24T16:30:30.683Z,124.78
2019-03-24T16:32:59.255Z,114.90
2019-03-24T16:35:27.774Z,108.50
2019-03-24T16:37:56.270Z,142.75
2019-03-24T16:40:24.857Z,166.85
2019-03-24T16:42:53.350Z,150.03
2019-03-24T16:45:21.874Z,181.28
2019-03-24T16:47:50.706Z,167.80
2019-03-24T16:50:19.278Z,158.70
2019-03-24T16:52:47.781Z,172.68
2019-03-24T16:55:16.372Z,154.18
2019-03-24T16:57:44.859Z,164.43
2019-03-24T17:00:14.019Z,374.65
2019-03-24T17:02:42.509Z,226.25
2019-03-24T17:05:11.369Z,190.73
2019-03-24T17:07:39.942Z,166.47
2019-03-24T17:10:08.878Z,166.73
2019-03-24T17:12:37.373Z,152.78
2019-03-24T17:15:09.484Z,166.30
2019-03-24T17:17:38.039Z,167.32
2019-03-24T17:20:09.780Z,130.15
2019-03-24T17:22:40.665Z,319.23
2019-03-24T17:25:09.607Z,266.55
2019-03-24T17:27:38.134Z,133.57
2019-03-24T17:30:14.718Z,117.33
2019-03-24T17:32:45.170Z,114.67
2019-03-24T17:35:16.359Z,98.10
2019-03-24T17:37:53.604Z,143.93
2019-03-24T17:40:26.788Z,236.90
2019-03-24T17:43:04.126Z,301.27
2019-03-24T17:45:40.369Z,255.45
2019-03-24T17:48:14.459Z,105.87
2019-03-24T17:50:43.111Z,82.65
2019-03-24T17:53:19.269Z,91.63
2019-03-24T17:55:47.840Z,83.70
2019-03-24T17:58:27.499Z,95.97
2019-03-24T18:01:06.093Z,108.50
2019-03-24T18:03:35.577Z,97.33
2019-03-24T18:06:04.089Z,91.78
2019-03-24T18:08:32.571Z,97.25
2019-03-24T18:11:01.406Z,108.15
2019-03-24T18:13:29.902Z,102.15
2019-03-24T18:15:58.482Z,133.18
2019-03-24T18:18:26.974Z,118.90
2019-03-24T18:20:55.478Z,112.10
2019-03-24T18:23:24.047Z,105.90
2019-03-24T18:25:52.540Z,126.50
2019-03-24T18:28:21.590Z,162.88
2019-03-24T18:30:50.116Z,172.37
2019-03-24T18:33:18.685Z,270.97
2019-03-24T18:35:47.257Z,219.22
2019-03-24T18:38:15.813Z,127.58
2019-03-24T18:40:44.415Z,133.85
2019-03-24T18:43:12.903Z,138.47
2019-03-24T18:45:41.548Z,123.38
2019-03-24T18:48:10.066Z,108.47
2019-03-24T18:50:40.873Z,92.30
2019-03-24T18:53:09.400Z,96.82
2019-03-24T18:55:37.884Z,90.35
2019-03-24T18:58:06.446Z,262.88
2019-03-24T19:00:35.039Z,263.77
2019-03-24T19:03:03.531Z,157.25
2019-03-24T19:05:32.084Z,109.65
2019-03-24T19:08:00.631Z,106.50
2019-03-24T19:10:29.121Z,103.25
2019-03-24T19:12:57.648Z,110.55
2019-03-24T19:15:26.202Z,115.60
2019-03-24T19:17:54.697Z,131.32
2019-03-24T19:20:23.195Z,111.88
2019-03-24T19:22:53.278Z,131.82
2019-03-24T19:25:21.778Z,138.70
2019-03-24T19:27:51.280Z,174.90
2019-03-24T19:30:22.849Z,185.57
2019-03-24T19:32:51.480Z,162.70
2019-03-24T19:35:20.011Z,220.78
2019-03-24T19:37:49.469Z,169.32
2019-03-24T19:40:29.110Z,140.52
2019-03-24T19:42:57.831Z,137.57
2019-03-24T19:45:27.839Z,113.97
2019-03-24T19:47:56.682Z,119.93
2019-03-24T19:50:25.802Z,114.45
2019-03-24T19:52:54.341Z,124.92
2019-03-24T19:55:22.828Z,154.15
2019-03-24T19:57:51.345Z,183.00
2019-03-24T20:00:19.975Z,174.68
2019-03-24T20:02:48.474Z,167.22
2019-03-24T20:05:16.980Z,134.75
2019-03-24T20:07:48.269Z,126.65
2019-03-24T20:10:16.078Z,112.83
2019-03-24T20:12:44.583Z,167.85
2019-03-24T20:15:14.821Z,156.12
2019-03-24T20:17:43.389Z,180.60
2019-03-24T20:20:12.110Z,134.18
2019-03-24T20:22:40.634Z,139.22
2019-03-24T20:27:58.428Z,130.63
2019-03-24T20:30:26.989Z,126.38
2019-03-24T20:32:55.497Z,99.32
2019-03-24T20:35:24.014Z,102.45
2019-03-24T20:37:52.524Z,470.70
2019-03-24T20:40:21.085Z,522.80
2019-03-24T20:42:49.577Z,519.00
2019-03-24T20:45:18.156Z,442.35
2019-03-24T20:47:46.736Z,202.60
2019-03-24T20:50:15.761Z,166.60
2019-03-24T20:52:44.260Z,198.50
2019-03-24T20:55:13.124Z,191.92
2019-03-24T20:57:41.681Z,144.47
2019-03-24T21:00:11.486Z,164.45
2019-03-24T21:02:39.979Z,174.57
2019-03-24T21:05:10.945Z,141.68
2019-03-24T21:07:38.854Z,131.45
2019-03-24T21:10:07.777Z,191.90
2019-03-24T21:12:36.568Z,130.72
2019-03-24T21:15:07.458Z,119.57
2019-03-24T21:17:36.128Z,132.80
2019-03-24T21:20:07.070Z,157.70
2019-03-24T21:22:35.641Z,113.28
2019-03-24T21:25:05.586Z,102.60
2019-03-24T21:27:34.077Z,132.65
2019-03-24T21:30:02.576Z,114.67
2019-03-24T21:32:31.058Z,130.52
2019-03-24T21:34:59.577Z,151.22
2019-03-24T21:37:28.076Z,160.25
2019-03-24T21:39:56.608Z,151.78
2019-03-24T21:42:25.095Z,114.82
2019-03-24T21:44:53.590Z,124.30
2019-03-24T21:47:22.120Z,116.03
2019-03-24T21:49:53.330Z,121.55
2019-03-24T21:52:21.954Z,123.50
2019-03-24T21:54:50.430Z,129.60
2019-03-24T21:57:18.932Z,141.70
2019-03-24T21:59:47.453Z,111.00
2019-03-24T22:02:15.989Z,120.90
2019-03-24T22:04:44.453Z,115.05
2019-03-24T22:07:12.970Z,104.97
2019-03-24T22:09:41.521Z,89.65
2019-03-24T22:12:10.002Z,79.00
2019-03-24T22:14:41.184Z,84.50
2019-03-24T22:17:09.686Z,99.47
2019-03-24T22:19:38.764Z,74.20
2019-03-24T22:22:07.347Z,78.25
2019-03-24T22:24:35.827Z,74.32
2019-03-24T22:27:04.360Z,79.07
2019-03-24T22:29:32.847Z,72.47
2019-03-24T22:32:01.323Z,67.53
2019-03-24T22:34:29.915Z,88.27
2019-03-24T22:36:58.394Z,90.95
2019-03-24T22:39:26.986Z,79.82
2019-03-24T22:41:55.460Z,75.20
2019-03-24T22:44:24.004Z,76.97
2019-03-24T22:46:52.491Z,77.78
2019-03-24T22:49:20.976Z,77.62
2019-03-24T22:51:49.490Z,69.85
2019-03-24T22:54:18.012Z,72.20
2019-03-24T22:56:46.596Z,71.95
2019-03-24T22:59:15.249Z,61.18
2019-03-24T23:01:43.851Z,61.80
2019-03-24T23:04:12.329Z,64.05
2019-03-24T23:06:40.977Z,66.82
2019-03-24T23:09:10.267Z,56.83
2019-03-24T23:11:38.780Z,66.05
2019-03-24T23:14:07.396Z,66.10
2019-03-24T23:16:36.053Z,75.72
2019-03-24T23:19:05.179Z,69.00
2019-03-24T23:21:33.737Z,61.88
2019-03-24T23:24:02.228Z,79.92
2019-03-24T23:26:30.736Z,64.00
2019-03-24T23:28:59.212Z,63.50
2019-03-24T23:31:27.825Z,71.05
2019-03-24T23:33:56.306Z,68.57
2019-03-24T23:36:24.813Z,60.85
2019-03-24T23:38:53.296Z,69.03
2019-03-24T23:41:21.783Z,74.42
2019-03-24T23:43:50.343Z,74.58
2019-03-24T23:46:18.857Z,76.10
2019-03-24T23:48:47.354Z,81.25
2019-03-24T23:51:16.285Z,75.47
2019-03-24T23:53:44.772Z,76.92
2019-03-24T23:56:13.291Z,75.65
2019-03-24T23:58:41.800Z,75.55
